Time;durP1;ratioP1;P1;durP2;ratioP2;P2;SDS_P1;SDS_P2;PMS_P1;PMS_P2;Temp;Humidity;BMP_temperature;BMP_pressure;BME280_temperature;BME280_humidity;BME280_pressure;Samples;Min_cycle;Max_cycle;Signal;HPM_P1;HPM_P2
2021/01/10 00:00:29;;;;;;;1.92;1.40;;;-2.60;98.00;;;;;;5069231;28;20207;-67
2021/01/10 00:02:57;;;;;;;1.10;1.10;;;-2.70;98.00;;;;;;5072199;28;20715;-66
2021/01/10 00:05:25;;;;;;;1.20;1.10;;;-2.70;98.00;;;;;;5069410;28;20341;-67
2021/01/10 00:07:52;;;;;;;1.98;1.60;;;-2.80;98.00;;;;;;5072008;28;20289;-67
2021/01/10 00:10:20;;;;;;;1.20;1.10;;;-2.80;98.00;;;;;;5067854;28;20202;-66
2021/01/10 00:12:48;;;;;;;1.73;1.27;;;-2.70;98.00;;;;;;5072418;28;20199;-66
2021/01/10 00:15:17;;;;;;;5.63;2.75;;;-2.70;98.00;;;;;;5052237;28;20289;-66
2021/01/10 00:17:48;;;;;;;1.17;1.00;;;-2.80;98.00;;;;;;5072309;28;20882;-66
2021/01/10 00:20:15;;;;;;;1.20;1.10;;;-2.60;98.00;;;;;;5069636;28;20326;-66
2021/01/10 00:22:42;;;;;;;4.10;3.08;;;-2.60;98.00;;;;;;5072043;28;20206;-67
2021/01/10 00:25:11;;;;;;;1.50;1.20;;;-2.70;98.00;;;;;;5069711;28;20203;-66
2021/01/10 00:27:43;;;;;;;1.48;1.40;;;-2.70;98.00;;;;;;5071808;28;20264;-66
2021/01/10 00:30:11;;;;;;;1.17;1.05;;;-2.60;98.00;;;;;;5069277;28;20203;-66
2021/01/10 00:32:39;;;;;;;1.15;1.08;;;-2.80;98.00;;;;;;5071660;28;20240;-67
2021/01/10 00:35:07;;;;;;;2.17;2.00;;;-2.90;98.00;;;;;;5069166;28;20245;-66
2021/01/10 00:37:34;;;;;;;3.25;1.92;;;-2.90;98.00;;;;;;5071723;28;20607;-67
2021/01/10 00:40:00;;;;;;;1.17;1.10;;;-2.80;98.00;;;;;;5069224;28;20206;-66
2021/01/10 00:42:28;;;;;;;1.20;1.10;;;-2.80;98.00;;;;;;5071588;28;20203;-66
2021/01/10 00:44:56;;;;;;;1.10;1.00;;;-2.70;98.00;;;;;;5068953;28;20214;-67
2021/01/10 00:47:25;;;;;;;1.10;1.00;;;-2.80;98.00;;;;;;5070214;28;20222;-66
2021/01/10 00:49:52;;;;;;;3.17;2.13;;;-2.70;98.00;;;;;;5067761;28;20202;-65
2021/01/10 00:52:21;;;;;;;1.20;1.10;;;-2.80;98.00;;;;;;5071602;28;20198;-66
2021/01/10 00:54:48;;;;;;;2.05;1.55;;;-2.80;98.00;;;;;;5067079;28;20206;-66
2021/01/10 00:57:14;;;;;;;1.20;1.10;;;-3.10;98.00;;;;;;5070301;28;20612;-68
2021/01/10 00:59:41;;;;;;;1.20;1.08;;;-3.10;98.00;;;;;;5069081;28;20596;-66
2021/01/10 01:02:14;;;;;;;1.30;1.15;;;-3.00;98.00;;;;;;5071585;28;20249;-66
2021/01/10 01:04:41;;;;;;;4.50;1.63;;;-3.10;98.00;;;;;;5068650;28;20238;-67
2021/01/10 01:07:07;;;;;;;2.40;1.67;;;-3.00;98.00;;;;;;5070866;28;20720;-66
2021/01/10 01:09:34;;;;;;;1.40;1.38;;;-3.00;98.00;;;;;;5068876;28;20209;-66
2021/01/10 01:12:07;;;;;;;1.75;1.42;;;-3.00;98.00;;;;;;5071437;28;20250;-66
2021/01/10 01:14:33;;;;;;;12.55;3.15;;;-2.90;98.00;;;;;;5069262;28;20566;-66
2021/01/10 01:17:00;;;;;;;1.20;1.10;;;-2.80;98.00;;;;;;5071361;28;20206;-66
2021/01/10 01:19:28;;;;;;;2.78;1.75;;;-3.00;98.00;;;;;;5069105;28;20880;-66
2021/01/10 01:21:54;;;;;;;1.73;1.42;;;-3.10;98.00;;;;;;5071309;28;20202;-66
2021/01/10 01:24:26;;;;;;;1.20;1.00;;;-3.30;98.00;;;;;;5067533;28;20206;-66
2021/01/10 01:26:54;;;;;;;1.85;1.33;;;-3.40;98.00;;;;;;5071217;28;20226;-67
2021/01/10 01:29:21;;;;;;;1.58;1.55;;;-3.40;98.00;;;;;;5068642;28;20305;-67
2021/01/10 01:31:49;;;;;;;1.20;1.00;;;-3.40;98.00;;;;;;5071198;28;20252;-65
2021/01/10 01:34:15;;;;;;;1.70;1.40;;;-3.50;98.00;;;;;;5068765;28;20206;-66
2021/01/10 01:36:42;;;;;;;1.30;1.20;;;-3.50;98.00;;;;;;5070969;28;20253;-66
2021/01/10 01:39:09;;;;;;;2.28;1.98;;;-3.50;98.00;;;;;;5068733;28;20198;-66
2021/01/10 01:41:36;;;;;;;1.35;1.27;;;-3.50;98.00;;;;;;5070976;28;20207;-66
2021/01/10 01:44:03;;;;;;;1.52;1.50;;;-3.60;98.00;;;;;;5068701;28;20210;-66
2021/01/10 01:46:31;;;;;;;1.73;1.67;;;-3.60;98.00;;;;;;5070871;28;20768;-66
2021/01/10 01:49:00;;;;;;;1.20;1.20;;;-3.50;98.00;;;;;;5068688;28;20579;-66
2021/01/10 01:51:26;;;;;;;1.50;1.33;;;-3.40;98.00;;;;;;5070982;28;20203;-66
2021/01/10 01:53:55;;;;;;;1.65;1.58;;;-3.50;98.00;;;;;;5070470;28;20626;-65
2021/01/10 01:56:21;;;;;;;1.65;1.52;;;-3.50;98.00;;;;;;5068913;28;20199;-67
2021/01/10 01:58:59;;;;;;;1.20;1.10;;;-3.50;98.00;;;;;;5070799;28;20248;-66
2021/01/10 02:01:27;;;;;;;1.58;1.52;;;-3.50;98.00;;;;;;5070818;28;20198;-67
2021/01/10 02:03:59;;;;;;;3.58;1.95;;;-3.50;98.00;;;;;;5070302;28;20198;-66
2021/01/10 02:06:31;;;;;;;1.70;1.70;;;-3.40;98.00;;;;;;5070711;28;20218;-67
2021/01/10 02:09:05;;;;;;;1.20;1.00;;;-3.50;98.00;;;;;;5069383;28;20224;-66
2021/01/10 02:11:35;;;;;;;1.20;1.10;;;-3.50;98.00;;;;;;5071176;28;20581;-65
2021/01/10 02:14:05;;;;;;;1.40;1.30;;;-3.40;98.00;;;;;;5068595;28;20214;-67
2021/01/10 02:16:38;;;;;;;4.30;3.00;;;-3.60;98.00;;;;;;5071019;28;20295;-66
2021/01/10 02:19:10;;;;;;;2.53;2.40;;;-3.70;98.00;;;;;;5069857;28;20293;-65
2021/01/10 02:21:42;;;;;;;1.63;1.30;;;-3.70;98.00;;;;;;5074292;28;20238;-67
2021/01/10 02:24:12;;;;;;;1.20;1.10;;;-3.70;98.00;;;;;;5072195;28;20210;-66
2021/01/10 02:26:39;;;;;;;1.30;1.10;;;-3.70;98.00;;;;;;5073955;28;20320;-65
2021/01/10 02:29:05;;;;;;;1.20;1.00;;;-3.70;98.00;;;;;;5072198;28;20230;-67
2021/01/10 02:31:39;;;;;;;2.75;1.73;;;-3.80;98.00;;;;;;5073050;28;20206;-66
2021/01/10 02:34:07;;;;;;;2.97;2.80;;;-3.80;98.00;;;;;;5071968;28;20206;-67
2021/01/10 02:36:51;;;;;;;8.60;3.00;;;-3.90;98.00;;;;;;5074118;28;20195;-66
2021/01/10 02:39:24;;;;;;;1.40;1.25;;;-3.80;98.00;;;;;;5071561;28;20665;-66
2021/01/10 02:41:54;;;;;;;1.30;1.27;;;-3.60;98.00;;;;;;5074046;28;20260;-66
2021/01/10 02:44:24;;;;;;;1.70;1.63;;;-3.60;98.00;;;;;;5071611;28;20256;-65
2021/01/10 02:46:52;;;;;;;1.20;1.10;;;-3.50;98.00;;;;;;5073934;28;20222;-66
2021/01/10 02:49:19;;;;;;;1.50;1.40;;;-3.50;98.00;;;;;;5071535;28;20203;-66
2021/01/10 02:51:46;;;;;;;3.38;2.45;;;-3.50;98.00;;;;;;5073727;28;20210;-65
2021/01/10 02:54:13;;;;;;;1.75;1.38;;;-3.40;98.00;;;;;;5071310;28;20234;-66
2021/01/10 02:56:49;;;;;;;1.77;1.52;;;-3.20;98.00;;;;;;5073699;28;20206;-65
2021/01/10 02:59:22;;;;;;;2.55;1.95;;;-3.10;98.00;;;;;;5071052;28;20229;-66
2021/01/10 03:01:50;;;;;;;1.50;1.30;;;-3.00;98.00;;;;;;5073723;28;20202;-66
2021/01/10 03:04:17;;;;;;;1.92;1.65;;;-3.10;98.00;;;;;;5071111;28;20225;-66
2021/01/10 03:06:46;;;;;;;1.50;1.30;;;-3.00;98.00;;;;;;5073256;28;20218;-65
2021/01/10 03:09:13;;;;;;;1.67;1.33;;;-2.90;98.00;;;;;;5071277;28;20257;-66
2021/01/10 03:11:42;;;;;;;1.20;1.00;;;-2.70;98.00;;;;;;5073278;28;20248;-66
2021/01/10 03:14:09;;;;;;;1.83;1.73;;;-2.50;98.00;;;;;;5071001;28;20202;-66
2021/01/10 03:16:37;;;;;;;1.95;1.55;;;-2.40;98.00;;;;;;5073295;28;20211;-66
2021/01/10 03:19:04;;;;;;;1.20;1.10;;;-2.40;98.00;;;;;;5071726;28;20203;-66
2021/01/10 03:21:32;;;;;;;1.98;1.80;;;-2.30;98.00;;;;;;5073161;28;20245;-67
2021/01/10 03:23:58;;;;;;;2.15;1.85;;;-2.40;98.00;;;;;;5072849;28;20206;-66
2021/01/10 03:26:27;;;;;;;1.20;1.10;;;-2.30;98.00;;;;;;5070898;28;20222;-65
2021/01/10 03:28:55;;;;;;;1.23;1.13;;;-2.20;98.00;;;;;;5072661;28;20607;-67
2021/01/10 03:31:22;;;;;;;1.60;1.30;;;-2.20;98.00;;;;;;5070390;28;20629;-67
2021/01/10 03:33:50;;;;;;;1.73;1.65;;;-2.10;98.00;;;;;;5072816;28;20202;-65
2021/01/10 03:36:18;;;;;;;1.20;1.00;;;-2.00;98.00;;;;;;5070608;28;20560;-67
2021/01/10 03:38:44;;;;;;;1.20;1.20;;;-2.20;98.00;;;;;;5072910;28;20770;-66
2021/01/10 03:41:11;;;;;;;1.20;1.20;;;-2.10;98.00;;;;;;5070525;28;20202;-66
2021/01/10 03:43:38;;;;;;;1.42;1.35;;;-2.00;98.00;;;;;;5072798;28;20253;-67
2021/01/10 03:46:08;;;;;;;1.13;1.10;;;-2.00;98.00;;;;;;5070565;28;20206;-67
2021/01/10 03:48:36;;;;;;;2.20;1.75;;;-2.00;98.00;;;;;;5072713;28;20700;-67
2021/01/10 03:51:03;;;;;;;1.10;1.00;;;-2.20;98.00;;;;;;5070126;28;20280;-65
2021/01/10 03:53:29;;;;;;;1.20;1.10;;;-2.30;98.00;;;;;;5072562;28;20199;-66
2021/01/10 03:55:56;;;;;;;1.50;1.50;;;-2.20;98.00;;;;;;5069024;28;20671;-67
2021/01/10 03:58:22;;;;;;;5.63;3.67;;;-2.10;98.00;;;;;;5072304;28;20202;-67
2021/01/10 04:00:49;;;;;;;1.20;1.10;;;-2.10;98.00;;;;;;5069953;28;20228;-66
2021/01/10 04:03:16;;;;;;;1.20;1.15;;;-2.10;98.00;;;;;;5072278;28;20593;-66
2021/01/10 04:05:43;;;;;;;1.45;1.38;;;-2.20;98.00;;;;;;5069635;28;20203;-66
2021/01/10 04:08:09;;;;;;;1.70;1.60;;;-2.30;98.00;;;;;;5072346;28;20266;-66
2021/01/10 04:10:37;;;;;;;1.10;1.08;;;-2.20;98.00;;;;;;5068555;28;20232;-66
2021/01/10 04:13:04;;;;;;;5.30;2.72;;;-2.30;98.00;;;;;;5070875;28;20649;-66
2021/01/10 04:15:31;;;;;;;1.20;1.10;;;-2.20;98.00;;;;;;5069839;28;20257;-65
2021/01/10 04:17:58;;;;;;;3.85;2.25;;;-2.20;98.00;;;;;;5071900;28;20202;-65
2021/01/10 04:20:26;;;;;;;1.25;1.23;;;-2.00;98.00;;;;;;5069358;28;20245;-66
2021/01/10 04:22:52;;;;;;;1.10;1.00;;;-2.00;98.00;;;;;;5071978;28;20575;-66
2021/01/10 04:25:19;;;;;;;2.53;2.30;;;-2.00;98.00;;;;;;5068168;28;20677;-67
2021/01/10 04:27:46;;;;;;;1.75;1.55;;;-2.20;98.00;;;;;;5071846;28;20223;-65
2021/01/10 04:30:15;;;;;;;2.85;1.45;;;-2.20;98.00;;;;;;5069009;28;20336;-67
2021/01/10 04:32:41;;;;;;;1.20;1.10;;;-2.10;98.00;;;;;;5069963;28;20668;-65
2021/01/10 04:35:11;;;;;;;1.20;1.00;;;-2.00;98.00;;;;;;5068859;28;20626;-67
2021/01/10 04:37:39;;;;;;;3.40;2.30;;;-1.90;98.00;;;;;;5071703;28;20750;-66
2021/01/10 04:40:07;;;;;;;1.52;1.50;;;-2.00;98.00;;;;;;5069353;28;20248;-67
2021/01/10 04:42:35;;;;;;;1.52;1.42;;;-2.00;98.00;;;;;;5071090;28;20199;-67
2021/01/10 04:45:06;;;;;;;1.65;1.55;;;-2.10;98.00;;;;;;5069138;28;20207;-67
2021/01/10 04:47:32;;;;;;;2.28;1.98;;;-2.00;98.00;;;;;;5070208;28;20218;-66
2021/01/10 04:49:59;;;;;;;2.85;2.30;;;-2.00;98.00;;;;;;5069265;28;20275;-65
2021/01/10 04:52:29;;;;;;;11.95;2.42;;;-1.90;98.00;;;;;;5053746;28;20198;-66
2021/01/10 04:54:59;;;;;;;2.25;2.10;;;-1.90;98.00;;;;;;5068765;28;20215;-66
2021/01/10 04:57:32;;;;;;;1.52;1.52;;;-2.00;98.00;;;;;;5071485;28;20214;-65
2021/01/10 05:00:00;;;;;;;3.15;2.05;;;-2.00;98.00;;;;;;5068739;28;20210;-67
2021/01/10 05:02:28;;;;;;;1.65;1.40;;;-1.90;98.00;;;;;;5069540;28;20284;-66
2021/01/10 05:04:56;;;;;;;3.58;2.40;;;-1.90;98.00;;;;;;5068597;28;20214;-67
2021/01/10 05:07:23;;;;;;;1.30;1.30;;;-1.80;98.00;;;;;;5071287;28;20230;-66
2021/01/10 05:09:51;;;;;;;4.32;1.77;;;-1.80;98.00;;;;;;5068418;28;20260;-67
2021/01/10 05:12:18;;;;;;;3.80;2.75;;;-1.70;98.00;;;;;;5071005;28;20209;-66
2021/01/10 05:14:45;;;;;;;3.38;1.95;;;-1.70;98.00;;;;;;5068438;28;20249;-67
2021/01/10 05:17:20;;;;;;;2.72;2.53;;;-1.70;98.00;;;;;;5071554;28;20571;-67
2021/01/10 05:19:55;;;;;;;4.82;2.70;;;-1.80;98.00;;;;;;5067625;28;20206;-67
2021/01/10 05:22:22;;;;;;;1.85;1.77;;;-1.90;98.00;;;;;;5071439;28;20206;-66
2021/01/10 05:24:52;;;;;;;3.28;2.17;;;-2.10;98.00;;;;;;5067636;28;20638;-66
2021/01/10 05:27:20;;;;;;;2.83;2.40;;;-2.20;98.00;;;;;;5070135;28;20229;-66
2021/01/10 05:29:47;;;;;;;1.63;1.55;;;-2.10;98.00;;;;;;5068502;28;20213;-66
2021/01/10 05:32:14;;;;;;;4.50;1.85;;;-2.10;98.00;;;;;;5069583;28;20203;-67
2021/01/10 05:34:57;;;;;;;1.58;1.48;;;-2.00;98.00;;;;;;5068684;28;20229;-67
2021/01/10 05:37:24;;;;;;;1.20;1.13;;;-1.90;98.00;;;;;;5069858;28;20226;-66
2021/01/10 05:39:51;;;;;;;2.58;2.00;;;-1.90;98.00;;;;;;5067151;28;20207;-65
2021/01/10 05:42:20;;;;;;;1.90;1.80;;;-1.80;98.00;;;;;;5071148;28;20295;-65
2021/01/10 05:44:51;;;;;;;1.10;1.00;;;-1.80;98.00;;;;;;5068332;28;20599;-66
2021/01/10 05:47:19;;;;;;;1.85;1.80;;;-1.70;98.00;;;;;;5070626;28;20226;-67
2021/01/10 05:49:48;;;;;;;1.20;1.00;;;-1.70;98.00;;;;;;5068562;28;20289;-66
2021/01/10 05:52:16;;;;;;;5.40;2.00;;;-2.00;98.00;;;;;;5071067;28;20649;-67
2021/01/10 05:54:43;;;;;;;1.48;1.40;;;-2.20;98.00;;;;;;5072027;28;20214;-66
2021/01/10 05:57:11;;;;;;;1.83;1.42;;;-2.20;98.00;;;;;;5074896;28;20206;-66
2021/01/10 05:59:58;;;;;;;1.20;1.20;;;-2.20;98.00;;;;;;5072066;28;20210;-65
2021/01/10 06:02:29;;;;;;;1.20;1.20;;;-2.30;98.00;;;;;;5074385;28;20206;-66
2021/01/10 06:05:12;;;;;;;1.20;1.10;;;-2.20;98.00;;;;;;5072303;28;20211;-66
2021/01/10 06:07:40;;;;;;;1.42;1.38;;;-2.30;98.00;;;;;;5070904;28;20673;-66
2021/01/10 06:10:09;;;;;;;1.67;1.63;;;-2.30;98.00;;;;;;5072202;28;20259;-66
2021/01/10 06:12:36;;;;;;;1.13;1.00;;;-2.30;98.00;;;;;;5074750;28;20657;-67
2021/01/10 06:15:15;;;;;;;1.73;1.67;;;-2.20;98.00;;;;;;5072172;28;20207;-68
2021/01/10 06:17:43;;;;;;;1.70;1.60;;;-2.00;98.00;;;;;;5074465;28;20233;-66
2021/01/10 06:20:25;;;;;;;1.17;1.10;;;-2.20;98.00;;;;;;5072130;28;20242;-66
2021/01/10 06:22:54;;;;;;;2.28;2.10;;;-2.30;98.00;;;;;;5071466;28;20206;-66
2021/01/10 06:25:22;;;;;;;2.65;1.55;;;-2.40;98.00;;;;;;5071931;28;20238;-66
2021/01/10 06:27:59;;;;;;;1.20;1.00;;;-2.40;98.00;;;;;;5072724;28;20557;-67
2021/01/10 06:30:31;;;;;;;2.05;1.42;;;-2.40;98.00;;;;;;5071665;28;20677;-66
2021/01/10 06:33:03;;;;;;;7.38;3.92;;;-2.50;98.00;;;;;;5074128;28;20207;-66
2021/01/10 06:35:36;;;;;;;1.52;1.15;;;-2.60;98.00;;;;;;5071854;28;20206;-66
2021/01/10 06:38:04;;;;;;;1.50;1.40;;;-2.40;98.00;;;;;;5074072;28;20206;-66
2021/01/10 06:40:33;;;;;;;1.40;1.35;;;-2.30;98.00;;;;;;5071485;28;20557;-67
2021/01/10 06:43:03;;;;;;;1.10;1.00;;;-2.30;98.00;;;;;;5073974;28;20642;-67
2021/01/10 06:45:35;;;;;;;1.20;1.20;;;-2.00;98.00;;;;;;5071437;28;20243;-67
2021/01/10 06:48:02;;;;;;;1.70;1.30;;;-1.90;98.00;;;;;;5073773;28;20239;-66
2021/01/10 06:50:29;;;;;;;1.58;1.48;;;-1.80;98.00;;;;;;5070227;28;20214;-65
2021/01/10 06:53:05;;;;;;;4.70;1.77;;;-2.00;98.00;;;;;;5073695;28;20198;-65
2021/01/10 06:55:32;;;;;;;1.20;1.10;;;-1.90;98.00;;;;;;5071281;28;20210;-66
2021/01/10 06:58:09;;;;;;;3.95;2.22;;;-1.90;98.00;;;;;;5073734;28;20221;-65
2021/01/10 07:00:56;;;;;;;1.65;1.20;;;-1.80;98.00;;;;;;5069398;28;20214;-65
2021/01/10 07:03:23;;;;;;;3.83;1.95;;;-1.80;98.00;;;;;;5073629;28;20249;-66
2021/01/10 07:06:06;;;;;;;1.30;1.20;;;-1.80;98.00;;;;;;5070173;28;20551;-65
2021/01/10 07:08:34;;;;;;;1.10;1.05;;;-1.70;98.00;;;;;;5073606;28;20226;-67
2021/01/10 07:11:33;;;;;;;2.00;1.67;;;-1.70;98.00;;;;;;5070061;28;20256;-67
2021/01/10 07:14:25;;;;;;;1.20;1.10;;;-1.70;98.00;;;;;;5072453;28;20199;-67
2021/01/10 07:17:19;;;;;;;1.30;1.23;;;-1.60;98.00;;;;;;5071940;28;20290;-67
2021/01/10 07:19:49;;;;;;;1.60;1.33;;;-1.50;98.00;;;;;;5071031;28;20256;-66
2021/01/10 07:22:33;;;;;;;1.15;1.10;;;-1.60;98.00;;;;;;5073357;28;20253;-66
2021/01/10 07:25:34;;;;;;;1.20;1.10;;;-1.80;98.00;;;;;;5070976;28;20244;-67
2021/01/10 07:28:49;;;;;;;5.55;1.83;;;-1.90;98.00;;;;;;5073158;28;20234;-67
2021/01/10 07:31:21;;;;;;;1.20;1.10;;;-2.00;98.00;;;;;;5008682;28;20209;-67
2021/01/10 07:34:10;;;;;;;1.20;1.10;;;-2.10;98.00;;;;;;5061752;28;20230;-67
2021/01/10 07:36:53;;;;;;;1.13;1.00;;;-2.20;98.00;;;;;;5070462;28;20297;-67
2021/01/10 07:39:22;;;;;;;1.20;1.15;;;-2.20;98.00;;;;;;5072999;28;20365;-66
2021/01/10 07:41:49;;;;;;;3.08;2.17;;;-2.00;98.00;;;;;;5070510;28;20202;-66
2021/01/10 07:44:18;;;;;;;1.40;1.30;;;-2.00;98.00;;;;;;5072686;28;20211;-68
2021/01/10 07:46:51;;;;;;;2.90;2.03;;;-2.00;98.00;;;;;;5070121;28;20269;-66
2021/01/10 07:49:19;;;;;;;1.10;1.00;;;-1.60;98.00;;;;;;5072760;28;20205;-65
2021/01/10 07:51:46;;;;;;;1.85;1.42;;;-1.50;98.00;;;;;;5069094;28;20221;-65
2021/01/10 07:54:14;;;;;;;6.88;2.17;;;-1.50;98.00;;;;;;5072546;28;20203;-66
2021/01/10 07:56:40;;;;;;;1.30;1.30;;;-1.40;98.00;;;;;;5068297;28;20309;-65
2021/01/10 07:59:17;;;;;;;2.92;2.50;;;-1.40;98.00;;;;;;5072285;28;20199;-66
2021/01/10 08:01:47;;;;;;;2.40;2.20;;;-1.50;98.00;;;;;;5070163;28;20233;-67
2021/01/10 08:04:32;;;;;;;2.28;2.05;;;-1.60;98.00;;;;;;5072328;28;20954;-66
2021/01/10 08:07:00;;;;;;;1.95;1.67;;;-1.60;98.00;;;;;;5071241;28;20239;-66
2021/01/10 08:09:31;;;;;;;3.13;2.42;;;-1.70;98.00;;;;;;5072195;28;20207;-67
2021/01/10 08:11:58;;;;;;;2.15;1.75;;;-1.70;98.00;;;;;;5071581;28;20202;-67
2021/01/10 08:14:25;;;;;;;1.10;1.00;;;-1.70;98.00;;;;;;5072092;28;20211;-67
2021/01/10 08:16:51;;;;;;;1.10;1.10;;;-1.60;98.00;;;;;;5068772;28;20198;-67
2021/01/10 08:19:18;;;;;;;1.10;1.10;;;-1.50;98.00;;;;;;5071828;28;20214;-67
2021/01/10 08:21:45;;;;;;;1.20;1.10;;;-1.40;98.00;;;;;;5070001;28;20212;-67
2021/01/10 08:24:14;;;;;;;4.80;1.73;;;-1.40;98.00;;;;;;5072157;28;20206;-67
2021/01/10 08:26:42;;;;;;;1.30;1.30;;;-1.30;98.00;;;;;;5069924;28;20223;-67
2021/01/10 08:29:09;;;;;;;1.55;1.30;;;-1.10;98.00;;;;;;5072025;28;20210;-67
2021/01/10 08:31:37;;;;;;;5.97;2.65;;;-1.00;98.00;;;;;;5070048;28;20225;-68
2021/01/10 08:34:06;;;;;;;1.20;1.05;;;-0.90;98.00;;;;;;5071930;28;20214;-68
2021/01/10 08:36:34;;;;;;;2.20;2.00;;;-1.00;98.00;;;;;;5069552;28;20230;-67
2021/01/10 08:39:04;;;;;;;1.40;1.33;;;-1.00;98.00;;;;;;5071790;28;20210;-67
2021/01/10 08:41:33;;;;;;;1.15;1.00;;;-1.00;98.00;;;;;;5069222;28;20654;-67
2021/01/10 08:44:01;;;;;;;1.17;1.00;;;-0.80;98.00;;;;;;5071574;28;20203;-67
2021/01/10 08:46:29;;;;;;;1.20;1.20;;;-0.90;98.00;;;;;;5069563;28;20241;-66
2021/01/10 08:48:56;;;;;;;3.20;2.05;;;-1.00;98.00;;;;;;5071540;28;20210;-67
2021/01/10 08:51:33;;;;;;;2.55;2.00;;;-1.00;98.00;;;;;;5069252;28;20204;-67
2021/01/10 08:54:01;;;;;;;1.83;1.70;;;-0.80;98.00;;;;;;5071512;28;20206;-68
2021/01/10 08:56:31;;;;;;;1.35;1.33;;;-0.70;98.00;;;;;;5068978;28;20666;-67
2021/01/10 08:58:57;;;;;;;3.30;2.05;;;-0.80;98.00;;;;;;5071259;28;20205;-67
2021/01/10 09:01:26;;;;;;;3.63;1.60;;;-0.70;98.00;;;;;;5069088;28;20311;-65
2021/01/10 09:03:59;;;;;;;15.88;2.33;;;-0.70;98.00;;;;;;5071429;28;20203;-67
2021/01/10 09:06:34;;;;;;;3.93;2.43;;;-0.90;98.00;;;;;;5068967;28;20213;-66
2021/01/10 09:09:07;;;;;;;1.50;1.33;;;-0.90;98.00;;;;;;5071321;28;21009;-67
2021/01/10 09:11:37;;;;;;;2.17;2.00;;;-0.80;98.00;;;;;;5069284;28;20236;-66
2021/01/10 09:14:07;;;;;;;1.83;1.55;;;-0.70;98.00;;;;;;5071410;28;20964;-67
2021/01/10 09:16:36;;;;;;;1.40;1.20;;;-0.70;98.00;;;;;;5068837;28;20580;-67
2021/01/10 09:19:03;;;;;;;1.20;1.00;;;-0.60;98.00;;;;;;5071239;28;20215;-67
2021/01/10 09:21:31;;;;;;;1.45;1.42;;;-0.60;98.00;;;;;;5068924;28;20203;-67
2021/01/10 09:23:59;;;;;;;1.30;1.20;;;-0.50;98.00;;;;;;5070143;28;20234;-67
2021/01/10 09:26:31;;;;;;;2.97;2.55;;;-0.50;98.00;;;;;;5067888;28;20465;-68
2021/01/10 09:29:00;;;;;;;1.45;1.30;;;-0.40;98.00;;;;;;5073939;28;20214;-66
2021/01/10 09:31:43;;;;;;;1.40;1.37;;;-0.30;98.00;;;;;;5072614;28;20215;-67
2021/01/10 09:34:10;;;;;;;1.55;1.52;;;-0.30;98.00;;;;;;5074758;28;20460;-66
2021/01/10 09:36:37;;;;;;;5.90;3.22;;;-0.40;98.00;;;;;;5072516;28;20243;-68
2021/01/10 09:39:06;;;;;;;1.83;1.55;;;-0.40;98.00;;;;;;5057112;28;20203;-65
2021/01/10 09:41:51;;;;;;;1.20;1.17;;;-0.30;98.00;;;;;;5072356;28;20199;-67
2021/01/10 09:44:18;;;;;;;1.60;1.53;;;-0.40;98.00;;;;;;5073318;28;20793;-66
2021/01/10 09:46:51;;;;;;;1.25;1.23;;;-0.40;98.00;;;;;;5071306;28;20494;-66
2021/01/10 09:49:20;;;;;;;1.50;1.40;;;-0.50;98.00;;;;;;5073506;28;20656;-68
2021/01/10 09:51:53;;;;;;;1.50;1.42;;;-0.50;98.00;;;;;;5070580;28;20202;-66
2021/01/10 09:54:21;;;;;;;1.48;1.40;;;-0.50;98.00;;;;;;5073391;28;20584;-67
2021/01/10 09:56:50;;;;;;;2.27;2.03;;;-0.50;98.00;;;;;;5071955;28;20552;-66
2021/01/10 09:59:40;;;;;;;1.50;1.40;;;-0.40;98.00;;;;;;5073725;28;20832;-66
2021/01/10 10:02:16;;;;;;;1.77;1.67;;;-0.50;98.00;;;;;;5071551;28;20481;-66
2021/01/10 10:04:45;;;;;;;2.15;1.85;;;-0.50;98.00;;;;;;5073090;28;20750;-66
2021/01/10 10:07:13;;;;;;;2.07;1.80;;;-0.40;98.00;;;;;;5074009;28;20222;-65
2021/01/10 10:09:54;;;;;;;2.17;2.03;;;-0.30;98.00;;;;;;5074211;28;20457;-67
2021/01/10 10:12:22;;;;;;;2.03;1.70;;;-0.40;98.00;;;;;;5073773;28;20203;-67
2021/01/10 10:15:05;;;;;;;1.40;1.30;;;-0.30;98.00;;;;;;5072058;28;20762;-67
2021/01/10 10:17:33;;;;;;;2.20;1.37;;;-0.40;98.00;;;;;;5074090;28;20448;-67
2021/01/10 10:20:01;;;;;;;1.20;1.17;;;-0.30;98.00;;;;;;5071500;28;20464;-67
2021/01/10 10:22:30;;;;;;;2.83;2.20;;;-0.30;98.00;;;;;;5073602;28;20469;-67
2021/01/10 10:25:12;;;;;;;1.20;1.00;;;-0.30;98.00;;;;;;5071930;28;20204;-67
2021/01/10 10:27:55;;;;;;;1.40;1.35;;;-0.20;98.00;;;;;;5074041;28;20219;-68
2021/01/10 10:30:38;;;;;;;1.20;1.02;;;-0.20;98.00;;;;;;5071556;28;20214;-67
2021/01/10 10:33:08;;;;;;;2.45;1.95;;;-0.30;98.00;;;;;;5073614;28;20269;-66
2021/01/10 10:35:35;;;;;;;1.70;1.67;;;-0.20;98.00;;;;;;5071080;28;20207;-67
2021/01/10 10:38:04;;;;;;;2.25;1.55;;;-0.10;98.00;;;;;;5073750;28;20252;-67
2021/01/10 10:40:31;;;;;;;1.42;1.35;;;0.10;98.00;;;;;;5069570;28;20644;-67
2021/01/10 10:43:07;;;;;;;1.37;1.33;;;0.10;98.00;;;;;;5073446;28;20199;-66
2021/01/10 10:45:34;;;;;;;2.13;2.00;;;0.40;98.00;;;;;;5071308;28;20457;-66
2021/01/10 10:48:00;;;;;;;1.20;1.10;;;0.60;98.00;;;;;;5073437;28;20285;-66
2021/01/10 10:50:27;;;;;;;2.20;2.00;;;0.70;98.00;;;;;;5071195;28;20467;-67
2021/01/10 10:52:54;;;;;;;1.40;1.00;;;0.90;98.00;;;;;;5073109;28;20453;-67
2021/01/10 10:55:22;;;;;;;3.00;1.87;;;1.00;98.00;;;;;;5069867;28;20465;-66
2021/01/10 10:57:48;;;;;;;1.20;1.10;;;1.00;98.00;;;;;;5073252;28;20454;-67
2021/01/10 11:00:17;;;;;;;7.63;1.50;;;1.20;98.00;;;;;;5071168;28;20471;-67
2021/01/10 11:02:44;;;;;;;1.30;1.20;;;1.10;98.00;;;;;;5072726;28;20463;-67
2021/01/10 11:05:11;;;;;;;1.63;1.50;;;1.00;98.00;;;;;;5071029;28;20541;-67
2021/01/10 11:07:38;;;;;;;6.20;1.73;;;1.20;98.00;;;;;;5073218;28;20498;-66
2021/01/10 11:10:06;;;;;;;1.20;1.10;;;1.40;98.00;;;;;;5070512;28;20466;-67
2021/01/10 11:12:33;;;;;;;2.53;1.33;;;1.40;98.00;;;;;;5072822;28;20454;-66
2021/01/10 11:15:00;;;;;;;1.20;1.00;;;1.40;98.00;;;;;;5070521;28;20475;-66
2021/01/10 11:17:27;;;;;;;1.30;1.30;;;1.50;98.00;;;;;;5072997;28;20520;-66
2021/01/10 11:19:57;;;;;;;1.20;1.00;;;1.50;98.00;;;;;;5071257;28;20481;-65
2021/01/10 11:22:28;;;;;;;1.20;1.10;;;1.70;98.00;;;;;;5072614;28;20459;-65
2021/01/10 11:24:54;;;;;;;1.50;1.40;;;1.80;98.00;;;;;;5070952;28;20462;-66
2021/01/10 11:27:21;;;;;;;2.67;1.80;;;1.90;98.00;;;;;;5072757;28;20491;-66
2021/01/10 11:29:48;;;;;;;1.60;1.60;;;2.10;98.00;;;;;;5073210;28;20466;-69
2021/01/10 11:32:16;;;;;;;1.77;1.47;;;2.30;98.00;;;;;;5071084;28;20870;-66
2021/01/10 11:34:44;;;;;;;1.97;1.50;;;2.40;98.00;;;;;;5072875;28;20459;-66
2021/01/10 11:37:10;;;;;;;1.40;1.10;;;2.50;98.00;;;;;;5070739;28;20460;-66
2021/01/10 11:39:37;;;;;;;1.80;1.70;;;2.60;98.00;;;;;;5072476;28;20597;-66
2021/01/10 11:42:04;;;;;;;1.70;1.60;;;2.80;98.00;;;;;;5070009;28;20671;-67
2021/01/10 11:44:31;;;;;;;1.30;1.27;;;2.90;98.00;;;;;;5072422;28;20459;-67
2021/01/10 11:47:01;;;;;;;1.60;1.53;;;2.90;98.00;;;;;;5070295;28;20484;-67
2021/01/10 11:49:28;;;;;;;2.23;2.03;;;3.10;98.00;;;;;;5072285;28;20749;-67
2021/01/10 11:51:56;;;;;;;1.63;1.57;;;3.10;98.00;;;;;;5069794;28;20459;-68
2021/01/10 11:54:23;;;;;;;1.20;1.00;;;2.80;98.00;;;;;;5072140;28;20826;-68
2021/01/10 11:56:50;;;;;;;1.20;1.10;;;2.70;98.00;;;;;;5068920;28;20464;-66
2021/01/10 11:59:16;;;;;;;2.70;2.50;;;2.80;98.00;;;;;;5071858;28;20487;-67
2021/01/10 12:01:44;;;;;;;1.67;1.10;;;2.90;98.00;;;;;;5069723;28;20962;-67
2021/01/10 12:04:11;;;;;;;1.20;1.10;;;3.00;98.00;;;;;;5072110;28;20456;-67
2021/01/10 12:06:39;;;;;;;1.20;1.10;;;2.70;98.00;;;;;;5069580;28;20883;-67
2021/01/10 12:09:09;;;;;;;1.20;1.00;;;2.70;98.00;;;;;;5071752;28;20464;-67
2021/01/10 12:11:36;;;;;;;1.20;1.00;;;2.80;98.00;;;;;;5068588;28;20540;-67
2021/01/10 12:14:02;;;;;;;1.40;1.20;;;3.00;98.00;;;;;;5072147;28;20460;-67
2021/01/10 12:16:29;;;;;;;1.10;0.90;;;3.00;98.00;;;;;;5069832;28;20491;-67
2021/01/10 12:18:55;;;;;;;1.27;1.20;;;3.60;98.00;;;;;;5071772;28;20449;-67
2021/01/10 12:21:22;;;;;;;1.87;1.83;;;4.30;98.00;;;;;;5070016;28;20491;-67
2021/01/10 12:23:48;;;;;;;1.60;1.20;;;4.30;98.00;;;;;;5072087;28;20457;-67
2021/01/10 12:26:17;;;;;;;1.27;1.20;;;4.40;98.00;;;;;;5069520;28;20457;-67
2021/01/10 12:28:45;;;;;;;1.20;1.00;;;5.30;98.00;;;;;;5072007;28;20547;-67
2021/01/10 12:31:12;;;;;;;2.23;1.70;;;5.00;98.00;;;;;;5069775;28;20448;-68
2021/01/10 12:33:41;;;;;;;3.30;1.27;;;4.90;98.00;;;;;;5072274;28;20457;-68
2021/01/10 12:36:09;;;;;;;2.67;1.33;;;4.50;98.00;;;;;;5069554;28;20464;-69
2021/01/10 12:38:36;;;;;;;1.20;1.00;;;4.00;98.00;;;;;;5071934;28;20950;-67
2021/01/10 12:41:03;;;;;;;1.53;1.23;;;3.70;98.00;;;;;;5069616;28;20449;-68
2021/01/10 12:43:32;;;;;;;1.20;1.10;;;3.50;98.00;;;;;;5071897;28;20465;-67
2021/01/10 12:45:59;;;;;;;2.17;1.73;;;3.30;98.00;;;;;;5069540;28;20459;-67
2021/01/10 12:48:28;;;;;;;1.20;1.00;;;3.20;98.00;;;;;;5071683;28;20492;-69
2021/01/10 12:50:55;;;;;;;1.20;1.20;;;3.00;98.00;;;;;;5068272;28;20483;-67
2021/01/10 12:53:22;;;;;;;1.27;1.27;;;2.80;98.00;;;;;;5071571;28;20464;-67
2021/01/10 12:55:51;;;;;;;4.80;1.60;;;2.80;98.00;;;;;;5068111;28;20467;-68
2021/01/10 12:58:20;;;;;;;1.60;1.47;;;2.70;98.00;;;;;;5070399;28;20467;-68
2021/01/10 13:00:47;;;;;;;1.40;1.30;;;2.60;98.00;;;;;;5069264;28;20463;-68